Time;durP1;ratioP1;P1;durP2;ratioP2;P2;SDS_P1;SDS_P2;PMS_P1;PMS_P2;Temp;Humidity;BMP_temperature;BMP_pressure;BME280_temperature;BME280_humidity;BME280_pressure;Samples;Min_cycle;Max_cycle;Signal;HPM_P1;HPM_P2
2023/04/20 00:00:57;;;;;;;4.40;3.28;;;;;7.50;98610.00;;;;5052820;28;20041;-59
2023/04/20 00:03:26;;;;;;;6.75;3.08;;;;;7.40;98606.00;;;;5051349;28;20041;-60
2023/04/20 00:05:53;;;;;;;6.35;3.22;;;;;7.40;98601.00;;;;5052461;28;20132;-57
2023/04/20 00:08:19;;;;;;;4.80;3.80;;;;;7.40;98601.00;;;;5052648;28;20045;-60
2023/04/20 00:10:46;;;;;;;5.63;3.83;;;;;7.40;98594.00;;;;5051285;28;20045;-60
2023/04/20 00:13:12;;;;;;;6.32;3.78;;;;;7.40;98599.00;;;;5052506;28;20068;-59
2023/04/20 00:15:39;;;;;;;5.65;3.75;;;;;7.40;98585.00;;;;5051464;28;20494;-60
2023/04/20 00:18:05;;;;;;;7.82;3.90;;;;;7.40;98590.00;;;;5051433;28;20055;-59
2023/04/20 00:20:33;;;;;;;6.13;4.03;;;;;7.40;98579.00;;;;5052499;28;20429;-60
2023/04/20 00:23:00;;;;;;;6.45;3.50;;;;;7.40;98575.00;;;;5052895;28;20048;-60
2023/04/20 00:25:28;;;;;;;4.78;3.25;;;;;7.30;98570.00;;;;5052889;28;20592;-60
2023/04/20 00:27:55;;;;;;;4.35;3.38;;;;;7.30;98556.00;;;;5053384;28;20042;-60
2023/04/20 00:30:22;;;;;;;8.50;4.40;;;;;7.10;98568.00;;;;5052305;28;20272;-60
2023/04/20 00:32:48;;;;;;;6.53;3.42;;;;;7.10;98555.00;;;;5052007;28;20041;-59
2023/04/20 00:35:15;;;;;;;7.80;3.20;;;;;7.00;98557.00;;;;5052968;28;20037;-59
2023/04/20 00:37:43;;;;;;;4.85;3.17;;;;;7.00;98553.00;;;;5052298;28;20056;-58
2023/04/20 00:40:09;;;;;;;9.20;3.58;;;;;6.90;98545.00;;;;5051968;28;20045;-59
2023/04/20 00:42:36;;;;;;;5.57;3.25;;;;;6.90;98555.00;;;;5053219;28;20049;-59
2023/04/20 00:45:03;;;;;;;6.35;3.03;;;;;6.90;98546.00;;;;5052672;28;20055;-58
2023/04/20 00:47:29;;;;;;;4.25;3.35;;;;;6.80;98541.00;;;;5052036;28;20049;-60
2023/04/20 00:49:56;;;;;;;5.88;3.45;;;;;6.70;98540.00;;;;5051328;28;20106;-59
2023/04/20 00:52:23;;;;;;;6.10;3.15;;;;;6.60;98530.00;;;;5052866;28;20098;-60
2023/04/20 00:54:49;;;;;;;3.85;3.10;;;;;6.40;98530.00;;;;5053149;28;20478;-59
2023/04/20 00:57:22;;;;;;;3.92;3.13;;;;;6.50;98528.00;;;;5051917;28;20521;-60
2023/04/20 00:59:52;;;;;;;4.03;3.08;;;;;6.60;98519.00;;;;5053168;28;20044;-58
2023/04/20 01:02:21;;;;;;;6.75;3.65;;;;;6.50;98522.00;;;;5055404;28;20070;-58
2023/04/20 01:04:48;;;;;;;4.45;3.20;;;;;6.30;98514.00;;;;5056245;28;20540;-59
2023/04/20 01:07:15;;;;;;;5.03;3.50;;;;;6.30;98515.00;;;;5056049;28;20052;-59
2023/04/20 01:09:41;;;;;;;4.57;3.17;;;;;6.20;98503.00;;;;5055783;28;20049;-59
2023/04/20 01:12:09;;;;;;;4.55;3.40;;;;;6.20;98499.00;;;;5055619;28;20128;-58
2023/04/20 01:14:36;;;;;;;6.72;3.25;;;;;6.20;98492.00;;;;5057360;28;20494;-60
2023/04/20 01:17:03;;;;;;;4.25;3.00;;;;;6.20;98489.00;;;;5055813;28;20048;-61
2023/04/20 01:19:29;;;;;;;10.95;3.55;;;;;6.20;98502.00;;;;5054067;28;20103;-61
2023/04/20 01:21:56;;;;;;;5.15;3.45;;;;;6.30;98492.00;;;;5055657;28;20041;-60
2023/04/20 01:24:22;;;;;;;4.97;3.55;;;;;6.40;98492.00;;;;5055742;28;20056;-61
2023/04/20 01:26:50;;;;;;;4.18;3.33;;;;;6.40;98484.00;;;;5055623;28;20544;-61
2023/04/20 01:29:16;;;;;;;4.53;3.40;;;;;6.40;98479.00;;;;5057420;28;20044;-60
2023/04/20 01:31:43;;;;;;;3.85;3.25;;;;;6.30;98485.00;;;;5057740;28;20045;-61
2023/04/20 01:34:09;;;;;;;4.85;3.15;;;;;5.90;98481.00;;;;5057637;28;20053;-61
2023/04/20 01:36:37;;;;;;;8.93;3.40;;;;;5.70;98477.00;;;;5056613;28;20140;-60
2023/04/20 01:39:05;;;;;;;5.75;3.17;;;;;5.50;98468.00;;;;5055987;28;20417;-60
2023/04/20 01:41:32;;;;;;;6.32;3.30;;;;;5.50;98476.00;;;;5053985;28;20520;-61
2023/04/20 01:43:59;;;;;;;3.50;2.40;;;;;5.50;98466.00;;;;5054098;28;20045;-60
2023/04/20 01:46:25;;;;;;;3.97;3.10;;;;;5.40;98466.00;;;;5054073;28;20107;-62
2023/04/20 01:48:52;;;;;;;5.88;3.47;;;;;5.40;98460.00;;;;5054876;28;20041;-59
2023/04/20 01:51:18;;;;;;;3.58;2.83;;;;;5.30;98464.00;;;;5053906;28;20107;-61
2023/04/20 01:53:45;;;;;;;4.07;3.30;;;;;5.20;98453.00;;;;5053632;28;20052;-59
2023/04/20 01:56:11;;;;;;;6.07;3.35;;;;;5.20;98457.00;;;;5037345;28;20049;-62
2023/04/20 01:58:38;;;;;;;6.53;3.03;;;;;5.10;98451.00;;;;5053508;28;20053;-61
2023/04/20 02:01:04;;;;;;;6.75;3.33;;;;;5.10;98447.00;;;;5053761;28;20045;-61
2023/04/20 02:03:32;;;;;;;4.72;3.17;;;;;5.20;98450.00;;;;5054775;28;20037;-60
2023/04/20 02:05:59;;;;;;;7.18;3.38;;;;;5.10;98449.00;;;;5054919;28;20560;-59
2023/04/20 02:08:28;;;;;;;5.35;3.78;;;;;5.10;98445.00;;;;5054745;28;20485;-60
2023/04/20 02:10:54;;;;;;;4.03;3.15;;;;;5.00;98443.00;;;;5053766;28;20040;-61
2023/04/20 02:13:21;;;;;;;4.53;3.72;;;;;5.10;98450.00;;;;5052283;28;20048;-60
2023/04/20 02:15:47;;;;;;;3.83;3.28;;;;;5.00;98447.00;;;;5053389;28;20041;-59
2023/04/20 02:18:15;;;;;;;5.85;3.50;;;;;5.00;98446.00;;;;5054566;28;20041;-60
2023/04/20 02:20:42;;;;;;;4.47;3.08;;;;;5.00;98445.00;;;;5054371;28;20102;-60
2023/04/20 02:23:09;;;;;;;4.40;3.00;;;;;5.00;98443.00;;;;5054533;28;20037;-60
2023/04/20 02:25:36;;;;;;;6.35;2.63;;;;;5.00;98436.00;;;;5053220;28;20048;-60
2023/04/20 02:28:03;;;;;;;4.25;3.15;;;;;5.10;98439.00;;;;5052859;28;20056;-59
2023/04/20 02:30:30;;;;;;;4.22;3.63;;;;;5.00;98437.00;;;;5036424;28;20052;-60
2023/04/20 02:32:58;;;;;;;5.20;2.83;;;;;4.80;98429.00;;;;5052924;28;20048;-59
2023/04/20 02:35:25;;;;;;;4.47;3.45;;;;;4.70;98422.00;;;;5053105;28;20045;-60
2023/04/20 02:37:51;;;;;;;3.80;2.97;;;;;4.60;98420.00;;;;5053432;28;20441;-60
2023/04/20 02:40:18;;;;;;;3.67;3.15;;;;;4.60;98415.00;;;;5054144;28;20055;-59
2023/04/20 02:42:44;;;;;;;5.38;2.88;;;;;4.60;98420.00;;;;5054178;28;20041;-59
2023/04/20 02:45:11;;;;;;;6.05;3.40;;;;;4.50;98413.00;;;;5053086;28;20045;-58
2023/04/20 02:47:40;;;;;;;4.40;3.35;;;;;4.50;98406.00;;;;5054120;28;20068;-61
2023/04/20 02:50:09;;;;;;;6.47;3.80;;;;;4.40;98410.00;;;;5067934;28;20045;-60
2023/04/20 02:52:53;;;;;;;4.00;3.38;;;;;4.30;98402.00;;;;5068783;28;20048;-59
2023/04/20 02:55:20;;;;;;;3.55;3.20;;;;;4.30;98407.00;;;;5069279;28;20071;-60
2023/04/20 02:57:49;;;;;;;5.57;2.97;;;;;4.30;98400.00;;;;5068381;28;20041;-58
2023/04/20 03:00:17;;;;;;;4.13;3.20;;;;;4.30;98395.00;;;;5068914;28;20080;-61
2023/04/20 03:03:02;;;;;;;6.57;3.38;;;;;4.20;98400.00;;;;5066832;28;20049;-60
2023/04/20 03:05:30;;;;;;;5.13;3.30;;;;;4.20;98392.00;;;;5065931;28;20444;-59
2023/04/20 03:07:57;;;;;;;4.03;3.38;;;;;4.20;98389.00;;;;5067541;28;20063;-59
2023/04/20 03:10:25;;;;;;;5.80;3.17;;;;;4.20;98378.00;;;;5066955;28;20067;-60
2023/04/20 03:13:04;;;;;;;4.13;2.92;;;;;4.20;98375.00;;;;5052448;28;20060;-59
2023/04/20 03:15:35;;;;;;;7.65;3.65;;;;;4.20;98378.00;;;;5052406;28;20462;-59
2023/04/20 03:18:14;;;;;;;4.88;3.50;;;;;4.20;98381.00;;;;5052234;28;20052;-58
2023/04/20 03:20:40;;;;;;;6.88;3.30;;;;;4.20;98373.00;;;;5052196;28;20059;-58
2023/04/20 03:23:07;;;;;;;3.53;3.10;;;;;4.10;98380.00;;;;5052033;28;20044;-61
2023/04/20 03:25:34;;;;;;;4.20;3.33;;;;;4.10;98369.00;;;;5052026;28;20055;-60
2023/04/20 03:28:08;;;;;;;5.10;3.40;;;;;4.20;98369.00;;;;5053383;28;20426;-60
2023/04/20 03:30:37;;;;;;;5.57;3.70;;;;;4.30;98375.00;;;;5051702;28;20288;-59
2023/04/20 03:33:10;;;;;;;4.30;3.53;;;;;4.40;98372.00;;;;5051883;28;20069;-59
2023/04/20 03:35:38;;;;;;;5.35;3.30;;;;;4.40;98369.00;;;;5053259;28;20466;-61
2023/04/20 03:38:05;;;;;;;4.72;3.35;;;;;4.40;98369.00;;;;5053193;28;20045;-58
2023/04/20 03:40:31;;;;;;;4.43;3.33;;;;;4.40;98371.00;;;;5051824;28;20072;-59
2023/04/20 03:42:58;;;;;;;7.25;3.47;;;;;4.50;98366.00;;;;5053182;28;20040;-60
2023/04/20 03:45:26;;;;;;;6.78;3.78;;;;;4.60;98373.00;;;;5035516;28;20100;-60
2023/04/20 03:47:53;;;;;;;5.25;3.80;;;;;4.60;98366.00;;;;5052960;28;20068;-58
2023/04/20 03:50:20;;;;;;;4.88;3.40;;;;;4.50;98364.00;;;;5051285;28;20174;-60
2023/04/20 03:52:48;;;;;;;5.00;3.22;;;;;4.30;98364.00;;;;5051481;28;20041;-59
2023/04/20 03:55:14;;;;;;;6.97;3.60;;;;;4.10;98366.00;;;;5051504;28;20048;-59
2023/04/20 03:57:46;;;;;;;5.22;3.38;;;;;4.00;98362.00;;;;5051319;28;20049;-60
2023/04/20 04:00:13;;;;;;;15.55;9.45;;;;;4.00;98359.00;;;;5051107;28;20049;-60
2023/04/20 04:02:45;;;;;;;12.15;7.72;;;;;4.10;98363.00;;;;5052854;28;20056;-60
2023/04/20 04:05:18;;;;;;;5.15;3.92;;;;;4.00;98355.00;;;;5051446;28;20068;-58
2023/04/20 04:07:47;;;;;;;5.95;3.65;;;;;4.00;98356.00;;;;5051324;28;20053;-59
2023/04/20 04:10:14;;;;;;;6.63;3.53;;;;;4.10;98363.00;;;;5050947;28;20048;-60
2023/04/20 04:12:41;;;;;;;5.50;3.60;;;;;4.00;98349.00;;;;5051084;28;20071;-60
2023/04/20 04:15:08;;;;;;;4.63;4.00;;;;;4.10;98358.00;;;;5051284;28;20079;-59
2023/04/20 04:17:43;;;;;;;6.60;3.80;;;;;4.10;98363.00;;;;5051142;28;20059;-61
2023/04/20 04:20:10;;;;;;;6.07;3.92;;;;;4.10;98360.00;;;;5051022;28;20061;-60
2023/04/20 04:22:37;;;;;;;7.20;4.30;;;;;4.00;98360.00;;;;5050922;28;20418;-59
2023/04/20 04:25:27;;;;;;;6.18;4.30;;;;;3.90;98351.00;;;;5051078;28;20045;-60
2023/04/20 04:27:54;;;;;;;6.22;3.70;;;;;3.90;98355.00;;;;5050777;28;20052;-60
2023/04/20 04:30:22;;;;;;;7.20;4.32;;;;;3.90;98352.00;;;;5051015;28;20418;-60
2023/04/20 04:32:49;;;;;;;5.82;4.03;;;;;3.90;98359.00;;;;5050758;28;20052;-60
2023/04/20 04:35:16;;;;;;;7.72;4.55;;;;;3.90;98353.00;;;;5050478;28;20045;-60
2023/04/20 04:37:43;;;;;;;6.65;4.10;;;;;3.90;98355.00;;;;5051113;28;20510;-60
2023/04/20 04:40:11;;;;;;;8.20;4.88;;;;;3.80;98348.00;;;;5050858;28;20045;-60
2023/04/20 04:42:38;;;;;;;9.57;4.05;;;;;3.80;98344.00;;;;5050840;28;20049;-60
2023/04/20 04:45:06;;;;;;;4.63;3.70;;;;;3.70;98356.00;;;;5050753;28;20525;-60
2023/04/20 04:47:35;;;;;;;8.25;3.70;;;;;3.60;98352.00;;;;5051147;28;20049;-60
2023/04/20 04:50:04;;;;;;;7.90;4.45;;;;;3.60;98344.00;;;;5034435;28;20510;-59
2023/04/20 04:52:32;;;;;;;6.07;3.35;;;;;3.60;98339.00;;;;5035314;28;20518;-60
2023/04/20 04:54:58;;;;;;;8.27;3.92;;;;;3.50;98340.00;;;;5050960;28;20052;-59
2023/04/20 04:57:25;;;;;;;6.82;4.38;;;;;3.50;98346.00;;;;5052126;28;20391;-60
2023/04/20 04:59:52;;;;;;;5.45;4.03;;;;;3.50;98342.00;;;;5051838;28;20037;-60
2023/04/20 05:02:19;;;;;;;9.32;5.60;;;;;3.70;98347.00;;;;5052181;28;20063;-59
2023/04/20 05:04:46;;;;;;;5.38;3.92;;;;;3.70;98346.00;;;;5050872;28;20162;-58
2023/04/20 05:07:14;;;;;;;6.30;4.03;;;;;3.70;98353.00;;;;5052061;28;20041;-60
2023/04/20 05:09:40;;;;;;;6.28;3.75;;;;;3.70;98348.00;;;;5051691;28;20045;-59
2023/04/20 05:12:07;;;;;;;9.00;5.45;;;;;3.70;98342.00;;;;5052169;28;20037;-58
2023/04/20 05:14:34;;;;;;;8.68;5.07;;;;;3.80;98356.00;;;;5050929;28;20040;-58
2023/04/20 05:17:00;;;;;;;5.97;4.15;;;;;3.80;98346.00;;;;5050825;28;20064;-59
2023/04/20 05:19:27;;;;;;;7.53;4.72;;;;;3.90;98353.00;;;;5051861;28;20045;-59
2023/04/20 05:21:54;;;;;;;7.82;3.90;;;;;4.00;98350.00;;;;5052203;28;20056;-58
2023/04/20 05:24:20;;;;;;;7.82;4.22;;;;;4.00;98351.00;;;;5052082;28;20037;-57
2023/04/20 05:26:47;;;;;;;7.43;4.88;;;;;4.20;98352.00;;;;5052010;28;20409;-60
2023/04/20 05:29:14;;;;;;;7.63;4.28;;;;;4.30;98365.00;;;;5051438;28;20044;-60
2023/04/20 05:31:41;;;;;;;7.80;4.65;;;;;4.50;98356.00;;;;5051547;28;20045;-60
2023/04/20 05:34:08;;;;;;;7.38;4.93;;;;;4.60;98355.00;;;;5051613;28;20490;-60
2023/04/20 05:36:34;;;;;;;19.20;10.70;;;;;4.60;98360.00;;;;5052024;28;20052;-59
2023/04/20 05:39:01;;;;;;;8.02;4.90;;;;;4.80;98358.00;;;;5051341;28;20037;-59
2023/04/20 05:41:27;;;;;;;11.63;5.68;;;;;5.00;98360.00;;;;5052279;28;20509;-59
2023/04/20 05:43:55;;;;;;;5.78;4.38;;;;;5.10;98352.00;;;;5052376;28;20041;-59
2023/04/20 05:46:22;;;;;;;7.22;4.32;;;;;5.00;98360.00;;;;5054531;28;20119;-59
2023/04/20 05:48:48;;;;;;;7.22;4.68;;;;;4.90;98349.00;;;;5055497;28;20037;-58
2023/04/20 05:51:15;;;;;;;10.50;6.07;;;;;5.00;98356.00;;;;5055100;28;20041;-59
2023/04/20 05:53:41;;;;;;;7.40;4.43;;;;;5.00;98352.00;;;;5055099;28;20045;-61
2023/04/20 05:56:08;;;;;;;5.13;4.18;;;;;5.10;98350.00;;;;5055237;28;20049;-59
2023/04/20 05:58:36;;;;;;;8.70;4.22;;;;;5.20;98349.00;;;;5053818;28;20088;-60
2023/04/20 06:01:03;;;;;;;6.78;4.15;;;;;5.20;98349.00;;;;5055092;28;20136;-59
2023/04/20 06:03:30;;;;;;;6.22;4.78;;;;;5.20;98347.00;;;;5055148;28;20045;-59
2023/04/20 06:05:57;;;;;;;9.30;4.55;;;;;5.40;98358.00;;;;5054749;28;20044;-59
2023/04/20 06:08:23;;;;;;;7.50;4.70;;;;;5.60;98338.00;;;;5055217;28;20063;-60
2023/04/20 06:10:57;;;;;;;6.28;4.40;;;;;5.60;98339.00;;;;5053440;28;20045;-61
2023/04/20 06:13:25;;;;;;;8.45;4.60;;;;;5.70;98342.00;;;;5053594;28;20044;-59
2023/04/20 06:15:52;;;;;;;11.35;4.75;;;;;6.00;98339.00;;;;5054908;28;20052;-60
2023/04/20 06:18:19;;;;;;;6.10;4.75;;;;;6.10;98347.00;;;;5054444;28;20506;-60
2023/04/20 06:20:46;;;;;;;7.22;5.07;;;;;6.20;98351.00;;;;5054597;28;20102;-59
2023/04/20 06:23:12;;;;;;;7.78;5.38;;;;;6.30;98338.00;;;;5054609;28;20037;-61
2023/04/20 06:25:39;;;;;;;8.60;5.35;;;;;6.50;98343.00;;;;5054548;28;20051;-60
2023/04/20 06:28:06;;;;;;;9.38;5.90;;;;;6.70;98343.00;;;;5054557;28;20044;-60
2023/04/20 06:30:33;;;;;;;12.18;6.00;;;;;6.60;98346.00;;;;5054284;28;20048;-60
2023/04/20 06:33:01;;;;;;;9.93;5.90;;;;;6.70;98335.00;;;;5054159;28;20094;-59
2023/04/20 06:35:28;;;;;;;8.93;5.75;;;;;6.90;98337.00;;;;5053288;28;20040;-60
2023/04/20 06:37:56;;;;;;;8.85;5.70;;;;;7.00;98334.00;;;;5054570;28;20072;-59
2023/04/20 06:40:26;;;;;;;9.40;5.85;;;;;7.10;98338.00;;;;5052729;28;20582;-57
2023/04/20 06:42:52;;;;;;;12.40;6.05;;;;;7.20;98338.00;;;;5054162;28;20413;-59
2023/04/20 06:45:19;;;;;;;8.85;6.32;;;;;7.40;98333.00;;;;5054311;28;20048;-60
2023/04/20 06:47:45;;;;;;;11.25;6.68;;;;;7.50;98330.00;;;;5053221;28;20041;-60
2023/04/20 06:50:12;;;;;;;11.63;6.30;;;;;7.60;98326.00;;;;5053938;28;20055;-58
2023/04/20 06:52:39;;;;;;;10.68;5.72;;;;;7.50;98333.00;;;;5053998;28;20048;-58
2023/04/20 06:55:06;;;;;;;9.85;5.88;;;;;7.50;98331.00;;;;5053815;28;20123;-58
2023/04/20 06:57:33;;;;;;;9.60;5.93;;;;;7.50;98331.00;;;;5053482;28;20051;-59
2023/04/20 07:00:00;;;;;;;9.18;5.68;;;;;7.60;98334.00;;;;5053576;28;20045;-60
2023/04/20 07:02:26;;;;;;;9.00;5.80;;;;;7.70;98333.00;;;;5054071;28;20037;-59
2023/04/20 07:05:00;;;;;;;9.75;6.18;;;;;7.80;98332.00;;;;5054086;28;20486;-59
2023/04/20 07:07:26;;;;;;;22.67;12.77;;;;;7.80;98336.00;;;;5054897;28;20052;-58
2023/04/20 07:09:53;;;;;;;12.20;6.10;;;;;7.80;98335.00;;;;5054326;28;20497;-60
2023/04/20 07:12:19;;;;;;;9.23;6.03;;;;;7.90;98325.00;;;;5054501;28;20130;-59
2023/04/20 07:14:46;;;;;;;10.50;6.28;;;;;7.80;98332.00;;;;5054549;28;20040;-61
2023/04/20 07:17:12;;;;;;;11.15;5.90;;;;;7.70;98322.00;;;;5037074;28;20510;-59
2023/04/20 07:19:39;;;;;;;8.30;6.32;;;;;7.80;98335.00;;;;5054545;28;20041;-60
2023/04/20 07:22:05;;;;;;;9.77;5.95;;;;;7.70;98330.00;;;;5054753;28;20102;-59
2023/04/20 07:24:32;;;;;;;9.00;6.13;;;;;7.60;98335.00;;;;5054657;28;20094;-60
2023/04/20 07:26:58;;;;;;;10.77;6.72;;;;;7.60;98338.00;;;;5055350;28;20045;-62
2023/04/20 07:29:25;;;;;;;9.38;5.90;;;;;7.70;98329.00;;;;5053465;28;20095;-60
2023/04/20 07:31:51;;;;;;;10.43;6.22;;;;;7.70;98335.00;;;;5053292;28;20452;-59
2023/04/20 07:34:18;;;;;;;7.78;6.22;;;;;7.60;98334.00;;;;5051967;28;20044;-58
2023/04/20 07:36:45;;;;;;;7.50;5.72;;;;;7.70;98327.00;;;;5053503;28;20557;-59
2023/04/20 07:39:11;;;;;;;11.18;6.47;;;;;7.80;98329.00;;;;5052961;28;20036;-57
2023/04/20 07:41:38;;;;;;;10.25;6.20;;;;;7.90;98330.00;;;;5052878;28;20045;-59
2023/04/20 07:44:04;;;;;;;9.82;6.65;;;;;7.90;98328.00;;;;5053357;28;20102;-57
2023/04/20 07:46:31;;;;;;;11.40;6.10;;;;;8.00;98333.00;;;;5054303;28;20115;-61
2023/04/20 07:48:57;;;;;;;12.60;6.47;;;;;8.10;98330.00;;;;5051632;28;20095;-59
2023/04/20 07:51:25;;;;;;;10.23;6.60;;;;;8.10;98325.00;;;;5052987;28;20041;-60
2023/04/20 07:53:51;;;;;;;12.80;7.00;;;;;8.20;98337.00;;;;5052807;28;20569;-60
2023/04/20 07:56:18;;;;;;;8.85;5.75;;;;;8.30;98328.00;;;;5052707;28;20040;-60
2023/04/20 07:58:45;;;;;;;8.13;6.30;;;;;8.40;98332.00;;;;5052538;28;20049;-60
2023/04/20 08:01:11;;;;;;;8.70;6.10;;;;;8.50;98329.00;;;;5052634;28;20051;-60
2023/04/20 08:03:38;;;;;;;14.13;9.70;;;;;8.80;98322.00;;;;5052816;28;20498;-59
2023/04/20 08:06:05;;;;;;;14.05;8.73;;;;;9.00;98330.00;;;;5052711;28;20037;-59
2023/04/20 08:08:31;;;;;;;6.63;5.28;;;;;9.10;98325.00;;;;5052290;28;20501;-60
2023/04/20 08:10:58;;;;;;;7.07;5.95;;;;;9.10;98322.00;;;;5051493;28;20486;-60
2023/04/20 08:13:26;;;;;;;7.03;5.88;;;;;9.00;98330.00;;;;5052273;28;20048;-58
2023/04/20 08:15:53;;;;;;;8.88;5.40;;;;;9.00;98336.00;;;;5052353;28;20051;-59
2023/04/20 08:18:20;;;;;;;7.90;5.68;;;;;9.20;98331.00;;;;5052330;28;20048;-60
2023/04/20 08:20:47;;;;;;;8.07;5.53;;;;;9.30;98336.00;;;;5052215;28;20087;-61
2023/04/20 08:23:13;;;;;;;10.38;7.15;;;;;9.40;98331.00;;;;5052184;28;20490;-61
2023/04/20 08:25:40;;;;;;;11.18;5.97;;;;;9.30;98338.00;;;;5051197;28;20490;-61
2023/04/20 08:28:06;;;;;;;7.78;5.57;;;;;9.30;98333.00;;;;5052003;28;20383;-61
2023/04/20 08:30:41;;;;;;;7.38;6.03;;;;;9.50;98330.00;;;;5052213;28;20037;-60
2023/04/20 08:33:07;;;;;;;9.43;5.75;;;;;9.50;98332.00;;;;5052141;28;20045;-60
2023/04/20 08:35:34;;;;;;;9.27;5.97;;;;;9.50;98324.00;;;;5052206;28;20103;-60
2023/04/20 08:38:00;;;;;;;7.07;5.97;;;;;9.40;98326.00;;;;5052232;28;20045;-60
2023/04/20 08:40:29;;;;;;;8.48;6.22;;;;;9.30;98330.00;;;;5052361;28;20132;-60
2023/04/20 08:42:56;;;;;;;9.60;5.95;;;;;9.20;98329.00;;;;5051445;28;20098;-61
2023/04/20 08:45:23;;;;;;;9.02;6.32;;;;;9.10;98317.00;;;;5052346;28;20437;-60
2023/04/20 08:47:50;;;;;;;7.65;6.82;;;;;9.50;98299.00;;;;5052103;28;20045;-60
2023/04/20 08:50:19;;;;;;;8.38;5.82;;;;;10.10;98293.00;;;;5051744;28;20532;-60
2023/04/20 08:52:45;;;;;;;9.48;6.40;;;;;10.40;98300.00;;;;5052138;28;20486;-60
2023/04/20 08:55:17;;;;;;;8.30;6.13;;;;;10.50;98299.00;;;;5052044;28;20409;-60
2023/04/20 08:57:43;;;;;;;7.10;5.80;;;;;10.70;98301.00;;;;5051821;28;20048;-60
2023/04/20 09:00:10;;;;;;;11.40;6.72;;;;;10.90;98299.00;;;;5051663;28;20049;-59
2023/04/20 09:02:53;;;;;;;7.68;5.97;;;;;10.90;98299.00;;;;5052012;28;20045;-60
2023/04/20 09:05:25;;;;;;;9.32;5.95;;;;;11.00;98293.00;;;;5052168;28;20051;-61
2023/04/20 09:07:54;;;;;;;11.23;6.40;;;;;11.00;98293.00;;;;5052200;28;20402;-60
2023/04/20 09:10:22;;;;;;;9.48;5.78;;;;;11.20;98290.00;;;;5051762;28;20045;-60
2023/04/20 09:12:50;;;;;;;9.68;5.72;;;;;11.50;98302.00;;;;5051962;28;20512;-60
2023/04/20 09:15:25;;;;;;;9.15;6.20;;;;;11.50;98291.00;;;;5051862;28;20041;-60
2023/04/20 09:17:52;;;;;;;8.68;6.28;;;;;11.50;98290.00;;;;5051981;28;20045;-61
2023/04/20 09:20:32;;;;;;;9.75;6.28;;;;;11.50;98293.00;;;;5051904;28;20099;-60
2023/04/20 09:23:13;;;;;;;7.50;6.35;;;;;11.40;98286.00;;;;5055776;28;20114;-60
2023/04/20 09:25:42;;;;;;;8.48;6.13;;;;;11.40;98287.00;;;;5056057;28;20037;-60
2023/04/20 09:28:09;;;;;;;8.25;6.22;;;;;11.50;98283.00;;;;5056357;28;20476;-61
2023/04/20 09:30:40;;;;;;;7.68;5.85;;;;;11.60;98273.00;;;;5056662;28;20075;-60
2023/04/20 09:33:09;;;;;;;9.20;5.78;;;;;11.80;98278.00;;;;5056716;28;20121;-60
2023/04/20 09:35:40;;;;;;;10.30;5.60;;;;;11.80;98279.00;;;;5056842;28;20041;-60
2023/04/20 09:38:08;;;;;;;13.25;6.13;;;;;11.60;98298.00;;;;5055583;28;20041;-61
2023/04/20 09:40:35;;;;;;;7.45;5.90;;;;;11.40;98262.00;;;;5056137;28;20051;-60
2023/04/20 09:43:15;;;;;;;7.78;6.15;;;;;11.70;98278.00;;;;5055404;28;20040;-61
2023/04/20 09:45:42;;;;;;;7.90;6.10;;;;;11.80;98267.00;;;;5055695;28;20102;-61
2023/04/20 09:48:10;;;;;;;9.15;6.22;;;;;11.80;98272.00;;;;5055220;28;20135;-60
2023/04/20 09:50:37;;;;;;;8.38;5.50;;;;;11.80;98268.00;;;;5054914;28;20048;-60
2023/04/20 09:53:18;;;;;;;8.98;6.43;;;;;11.60;98268.00;;;;5055198;28;20049;-57
2023/04/20 09:55:50;;;;;;;6.45;5.78;;;;;11.70;98260.00;;;;5054962;28;20505;-59
2023/04/20 09:58:20;;;;;;;7.03;6.05;;;;;11.70;98256.00;;;;5055137;28;20059;-60
2023/04/20 10:00:47;;;;;;;8.05;5.68;;;;;11.80;98250.00;;;;5055584;28;20041;-61
2023/04/20 10:03:18;;;;;;;6.78;6.07;;;;;11.90;98244.00;;;;5056654;28;20104;-61
2023/04/20 10:05:45;;;;;;;7.32;5.38;;;;;12.30;98245.00;;;;5056407;28;20555;-60
2023/04/20 10:08:12;;;;;;;6.63;5.53;;;;;12.60;98240.00;;;;5056049;28;20048;-61
2023/04/20 10:10:49;;;;;;;6.47;5.22;;;;;12.60;98244.00;;;;5054987;28;20041;-61
2023/04/20 10:13:18;;;;;;;7.47;6.15;;;;;12.70;98244.00;;;;5055115;28;20045;-60
2023/04/20 10:15:45;;;;;;;7.15;5.43;;;;;12.90;98244.00;;;;5054861;28;20555;-60
2023/04/20 10:18:23;;;;;;;8.68;6.63;;;;;12.90;98246.00;;;;5054743;28;20078;-60
2023/04/20 10:20:51;;;;;;;8.07;6.00;;;;;12.80;98235.00;;;;5054086;28;20041;-59
2023/04/20 10:23:18;;;;;;;7.10;5.75;;;;;12.80;98234.00;;;;5054396;28;20045;-59
2023/04/20 10:25:56;;;;;;;8.40;5.70;;;;;13.00;98232.00;;;;5054386;28;20036;-60
2023/04/20 10:28:23;;;;;;;6.40;5.80;;;;;13.10;98237.00;;;;5054232;28;20512;-60
2023/04/20 10:30:51;;;;;;;9.13;6.22;;;;;13.10;98234.00;;;;5053849;28;20054;-61
2023/04/20 10:33:19;;;;;;;7.07;5.30;;;;;13.20;98230.00;;;;5052014;28;20051;-60
2023/04/20 10:35:46;;;;;;;6.03;5.40;;;;;13.00;98236.00;;;;5054102;28;20048;-60
2023/04/20 10:38:13;;;;;;;6.78;5.78;;;;;12.90;98235.00;;;;5054266;28;20520;-60
2023/04/20 10:40:39;;;;;;;6.50;5.70;;;;;12.70;98228.00;;;;5052775;28;20076;-60
2023/04/20 10:43:23;;;;;;;10.48;6.20;;;;;12.70;98219.00;;;;5054321;28;20103;-61
2023/04/20 10:45:50;;;;;;;12.63;6.97;;;;;12.60;98225.00;;;;5054328;28;20079;-61
2023/04/20 10:48:16;;;;;;;9.68;6.90;;;;;12.60;98223.00;;;;5054144;28;20516;-60
2023/04/20 10:50:44;;;;;;;10.88;7.38;;;;;12.70;98214.00;;;;5053621;28;20049;-61
2023/04/20 10:53:21;;;;;;;6.97;5.85;;;;;12.80;98208.00;;;;5053944;28;20040;-62
2023/04/20 10:56:00;;;;;;;8.27;5.93;;;;;12.70;98219.00;;;;5054223;28;20041;-61
2023/04/20 10:58:27;;;;;;;8.25;5.85;;;;;12.60;98210.00;;;;5054564;28;20560;-60
2023/04/20 11:01:01;;;;;;;7.82;6.00;;;;;12.50;98216.00;;;;5054157;28;20102;-58
2023/04/20 11:03:29;;;;;;;5.72;4.95;;;;;12.20;98217.00;;;;5054013;28;20159;-59
2023/04/20 11:06:02;;;;;;;7.88;6.50;;;;;12.10;98206.00;;;;5053594;28;20055;-59
2023/04/20 11:08:36;;;;;;;6.70;5.25;;;;;12.00;98211.00;;;;5053576;28;20041;-61
2023/04/20 11:11:03;;;;;;;10.43;6.43;;;;;12.00;98194.00;;;;5053665;28;20483;-59
2023/04/20 11:13:29;;;;;;;9.30;6.00;;;;;12.00;98182.00;;;;5053973;28;20401;-60
2023/04/20 11:15:56;;;;;;;8.18;6.25;;;;;12.20;98180.00;;;;5052898;28;20037;-61
2023/04/20 11:18:22;;;;;;;8.80;5.93;;;;;12.30;98174.00;;;;5053365;28;20045;-60
2023/04/20 11:20:51;;;;;;;7.57;5.63;;;;;12.30;98180.00;;;;5053300;28;20417;-62
2023/04/20 11:23:21;;;;;;;7.22;5.72;;;;;12.30;98171.00;;;;5053461;28;20402;-61
2023/04/20 11:25:52;;;;;;;9.18;5.75;;;;;12.20;98172.00;;;;5053254;28;20037;-61
2023/04/20 11:28:19;;;;;;;6.80;5.65;;;;;12.20;98168.00;;;;5051893;28;20140;-61
2023/04/20 11:30:46;;;;;;;6.47;5.55;;;;;12.20;98170.00;;;;5052947;28;20049;-60
2023/04/20 11:33:12;;;;;;;8.00;5.65;;;;;12.20;98168.00;;;;5035155;28;20045;-61
2023/04/20 11:35:41;;;;;;;8.50;6.32;;;;;12.20;98177.00;;;;5051585;28;20075;-61
2023/04/20 11:38:08;;;;;;;11.85;7.72;;;;;12.10;98166.00;;;;5052953;28;20140;-61
2023/04/20 11:40:35;;;;;;;8.43;6.65;;;;;12.10;98164.00;;;;5051585;28;20041;-61
2023/04/20 11:43:03;;;;;;;8.95;6.28;;;;;12.10;98162.00;;;;5051621;28;20131;-61
2023/04/20 11:45:32;;;;;;;8.02;5.90;;;;;12.20;98156.00;;;;5053247;28;20041;-61
2023/04/20 11:48:02;;;;;;;6.90;5.43;;;;;12.30;98157.00;;;;5053043;28;20409;-60
2023/04/20 11:50:29;;;;;;;7.05;5.97;;;;;12.30;98152.00;;;;5052809;28;20107;-61
2023/04/20 11:52:55;;;;;;;8.82;5.90;;;;;12.30;98156.00;;;;5052707;28;20505;-60
2023/04/20 11:55:22;;;;;;;10.68;5.95;;;;;12.50;98163.00;;;;5051410;28;20061;-61
2023/04/20 11:57:49;;;;;;;9.02;6.32;;;;;12.50;98156.00;;;;5052509;28;20087;-60
2023/04/20 12:00:16;;;;;;;8.13;5.72;;;;;12.60;98156.00;;;;5052314;28;20559;-61
2023/04/20 12:02:43;;;;;;;12.32;5.40;;;;;12.70;98163.00;;;;5052693;28;20095;-60
2023/04/20 12:05:10;;;;;;;8.48;5.57;;;;;12.80;98160.00;;;;5052568;28;20050;-61
2023/04/20 12:07:37;;;;;;;7.75;5.40;;;;;12.90;98166.00;;;;5053021;28;20063;-61
2023/04/20 12:10:05;;;;;;;8.07;6.15;;;;;12.90;98162.00;;;;5052210;28;20053;-60
2023/04/20 12:12:32;;;;;;;6.35;5.45;;;;;12.70;98157.00;;;;5052228;28;20119;-60
2023/04/20 12:14:59;;;;;;;7.68;5.45;;;;;12.70;98157.00;;;;5052213;28;20037;-60
2023/04/20 12:17:26;;;;;;;8.00;6.15;;;;;12.70;98158.00;;;;5052673;28;20037;-61
2023/04/20 12:19:53;;;;;;;6.70;5.35;;;;;12.60;98162.00;;;;5050736;28;20037;-60
2023/04/20 12:22:19;;;;;;;8.50;6.38;;;;;12.40;98163.00;;;;5053146;28;20049;-60
2023/04/20 12:24:46;;;;;;;7.85;5.50;;;;;12.30;98161.00;;;;5051596;28;20049;-60
2023/04/20 12:27:12;;;;;;;8.25;6.10;;;;;12.20;98158.00;;;;5052851;28;20107;-60